KCNW/CNW METAR and TAF weather

Enter ICAO airport designator
Station Type Date Time Source
KCNW METAR 2019/12/06 13:55 UTC NOAA

KCNW 061355Z 30010G16KT 10SM SKC 13/06 A3015


Station Type Date Time Source
KCNW Decoded METAR 2019/12/06 13:55 UTC NOAA

Station name not available
Dec 06, 2019 - 08:55 AM EST / 2019.12.06 1355 UTC
Wind: from the WNW (300 degrees) at 12 MPH (10 KT) gusting to 18 MPH (16 KT):0
Visibility: 10 mile(s):0
Sky conditions: clear
Temperature: 55 F (13 C)
Dew Point: 42 F (6 C)
Relative Humidity: 62%
Pressure (altimeter): 30.15 in. Hg (1020 hPa)
ob: KCNW 061355Z 30010G16KT 10SM SKC 13/06 A3015
cycle: 14

Station Type Date Time Source
KCNW TAF UTC NOAA

Error!

Example: see airport list